Wilbur by the Sea, Florida
Current Conditions -  °F | °C
As of 5:50 PM on Wednesday 22 Oct 2014 (Local Time) from KEVB Reporting Station
Few Clouds Few Clouds  
Wind Chill: 24°   Ceiling: Unl
Heat Index: 24°   Visibility: 10mi
Dew Point: 17°   Wind: 12mph
Humidity: 65%   Direction: 20°NNE
Pressure: 29.97"   Gusts: 17mph
Location:  29.1091°N, 80.9979°W
Report Text: KEVB 222150Z 02010G15KT 10SM FEW030 24/17 A2997
Loading
Personal Weather Stations






























Interactive Weather Map
Tropical Storm Tracking
New forecast layout! Learn more

10-Day Weather Forecast

Advertisements
Track Severe Weather on mobile